sensor_id;sensor_type;location;lat;lon;timestamp;pressure;altitude;pressure_sealevel;temperature;humidity
75815;BME280;70031;45.570;14.228;2023-10-31T00:00:12;95795.81;;;14.82;100.00
75815;BME280;70031;45.570;14.228;2023-10-31T00:02:12;95788.47;;;14.70;100.00
75815;BME280;70031;45.570;14.228;2023-10-31T00:04:13;95779.56;;;14.70;100.00
75815;BME280;70031;45.570;14.228;2023-10-31T00:06:13;95792.75;;;14.71;100.00
75815;BME280;70031;45.570;14.228;2023-10-31T00:08:13;95787.13;;;14.64;100.00
75815;BME280;70031;45.570;14.228;2023-10-31T00:10:13;95797.84;;;14.60;100.00
75815;BME280;70031;45.570;14.228;2023-10-31T00:12:13;95785.44;;;14.59;100.00
75815;BME280;70031;45.570;14.228;2023-10-31T00:14:14;95805.75;;;14.66;100.00
75815;BME280;70031;45.570;14.228;2023-10-31T00:16:14;95824.81;;;14.57;100.00
75815;BME280;70031;45.570;14.228;2023-10-31T00:18:14;95788.00;;;14.56;100.00
75815;BME280;70031;45.570;14.228;2023-10-31T00:20:15;95761.63;;;14.53;100.00
75815;BME280;70031;45.570;14.228;2023-10-31T00:22:15;95747.31;;;14.52;100.00
75815;BME280;70031;45.570;14.228;2023-10-31T00:24:15;95758.34;;;14.47;100.00
75815;BME280;70031;45.570;14.228;2023-10-31T00:26:15;95756.44;;;14.48;100.00
75815;BME280;70031;45.570;14.228;2023-10-31T00:28:16;95771.09;;;14.47;100.00
75815;BME280;70031;45.570;14.228;2023-10-31T00:30:16;95753.50;;;14.53;100.00
75815;BME280;70031;45.570;14.228;2023-10-31T00:32:16;95763.56;;;14.52;100.00
75815;BME280;70031;45.570;14.228;2023-10-31T00:34:17;95752.38;;;14.54;100.00
75815;BME280;70031;45.570;14.228;2023-10-31T00:36:17;95755.53;;;14.56;100.00
75815;BME280;70031;45.570;14.228;2023-10-31T00:38:17;95773.47;;;14.60;100.00
75815;BME280;70031;45.570;14.228;2023-10-31T00:40:18;95778.09;;;14.60;100.00
75815;BME280;70031;45.570;14.228;2023-10-31T00:42:18;95778.91;;;14.60;100.00
75815;BME280;70031;45.570;14.228;2023-10-31T00:44:18;95766.38;;;14.68;100.00
75815;BME280;70031;45.570;14.228;2023-10-31T00:46:19;95747.63;;;14.63;100.00
75815;BME280;70031;45.570;14.228;2023-10-31T00:48:19;95734.88;;;14.64;100.00
75815;BME280;70031;45.570;14.228;2023-10-31T00:50:20;95746.63;;;14.68;100.00
75815;BME280;70031;45.570;14.228;2023-10-31T00:52:20;95780.25;;;14.67;100.00
75815;BME280;70031;45.570;14.228;2023-10-31T00:54:20;95779.81;;;14.65;100.00
75815;BME280;70031;45.570;14.228;2023-10-31T00:56:20;95783.41;;;14.69;100.00
75815;BME280;70031;45.570;14.228;2023-10-31T00:58:21;95802.00;;;14.70;100.00
75815;BME280;70031;45.570;14.228;2023-10-31T01:00:21;95831.25;;;14.77;100.00
75815;BME280;70031;45.570;14.228;2023-10-31T01:02:21;95819.16;;;14.74;100.00
75815;BME280;70031;45.570;14.228;2023-10-31T01:04:21;95802.25;;;14.77;100.00
75815;BME280;70031;45.570;14.228;2023-10-31T01:06:21;95784.41;;;14.76;100.00
75815;BME280;70031;45.570;14.228;2023-10-31T01:08:22;95771.09;;;14.83;100.00
75815;BME280;70031;45.570;14.228;2023-10-31T01:10:22;95752.91;;;14.84;100.00
75815;BME280;70031;45.570;14.228;2023-10-31T01:12:22;95759.69;;;14.90;100.00
75815;BME280;70031;45.570;14.228;2023-10-31T01:14:22;95743.28;;;14.99;100.00
75815;BME280;70031;45.570;14.228;2023-10-31T01:16:23;95724.41;;;15.02;100.00
75815;BME280;70031;45.570;14.228;2023-10-31T01:18:23;95743.72;;;15.01;100.00
75815;BME280;70031;45.570;14.228;2023-10-31T01:20:23;95782.31;;;15.10;100.00
75815;BME280;70031;45.570;14.228;2023-10-31T01:22:24;95790.00;;;15.08;100.00
75815;BME280;70031;45.570;14.228;2023-10-31T01:24:24;95811.81;;;14.99;100.00
75815;BME280;70031;45.570;14.228;2023-10-31T01:26:24;95791.16;;;14.95;100.00
75815;BME280;70031;45.570;14.228;2023-10-31T01:28:24;95758.56;;;14.91;100.00
75815;BME280;70031;45.570;14.228;2023-10-31T01:30:25;95791.28;;;14.98;100.00
75815;BME280;70031;45.570;14.228;2023-10-31T01:32:25;95804.69;;;15.07;100.00
75815;BME280;70031;45.570;14.228;2023-10-31T01:34:25;95791.41;;;15.30;100.00
75815;BME280;70031;45.570;14.228;2023-10-31T01:36:25;95745.72;;;15.44;100.00
75815;BME280;70031;45.570;14.228;2023-10-31T01:38:27;95758.50;;;15.43;100.00
75815;BME280;70031;45.570;14.228;2023-10-31T01:40:27;95769.47;;;15.35;100.00
75815;BME280;70031;45.570;14.228;2023-10-31T01:42:27;95777.81;;;15.42;100.00
75815;BME280;70031;45.570;14.228;2023-10-31T01:44:27;95771.69;;;15.45;100.00
75815;BME280;70031;45.570;14.228;2023-10-31T01:46:27;95762.69;;;15.41;100.00
75815;BME280;70031;45.570;14.228;2023-10-31T01:48:29;95754.41;;;15.50;100.00
75815;BME280;70031;45.570;14.228;2023-10-31T01:50:30;95763.75;;;15.52;100.00
75815;BME280;70031;45.570;14.228;2023-10-31T01:52:30;95754.63;;;15.44;100.00
75815;BME280;70031;45.570;14.228;2023-10-31T01:54:33;95742.94;;;15.40;100.00
75815;BME280;70031;45.570;14.228;2023-10-31T01:56:33;95731.72;;;15.42;100.00
75815;BME280;70031;45.570;14.228;2023-10-31T01:58:34;95741.34;;;15.39;100.00
75815;BME280;70031;45.570;14.228;2023-10-31T02:00:35;95737.50;;;15.40;100.00
75815;BME280;70031;45.570;14.228;2023-10-31T02:02:35;95751.06;;;15.40;100.00
75815;BME280;70031;45.570;14.228;2023-10-31T02:04:37;95761.00;;;15.36;100.00
75815;BME280;70031;45.570;14.228;2023-10-31T02:06:37;95761.44;;;15.38;100.00
75815;BME280;70031;45.570;14.228;2023-10-31T02:08:37;95750.91;;;15.49;100.00
75815;BME280;70031;45.570;14.228;2023-10-31T02:10:38;95741.84;;;15.57;100.00
75815;BME280;70031;45.570;14.228;2023-10-31T02:12:38;95740.84;;;15.50;100.00
75815;BME280;70031;45.570;14.228;2023-10-31T02:14:38;95748.03;;;15.58;100.00
75815;BME280;70031;45.570;14.228;2023-10-31T02:16:38;95730.19;;;15.57;100.00
75815;BME280;70031;45.570;14.228;2023-10-31T02:18:39;95741.59;;;15.62;100.00
75815;BME280;70031;45.570;14.228;2023-10-31T02:20:39;95733.59;;;15.54;100.00
75815;BME280;70031;45.570;14.228;2023-10-31T02:22:39;95732.44;;;15.55;100.00
75815;BME280;70031;45.570;14.228;2023-10-31T02:24:40;95739.00;;;15.54;100.00
75815;BME280;70031;45.570;14.228;2023-10-31T02:26:40;95735.44;;;15.50;100.00
75815;BME280;70031;45.570;14.228;2023-10-31T02:28:40;95742.66;;;15.45;100.00
75815;BME280;70031;45.570;14.228;2023-10-31T02:30:41;95750.13;;;15.49;100.00
75815;BME280;70031;45.570;14.228;2023-10-31T02:32:41;95744.94;;;15.43;100.00
75815;BME280;70031;45.570;14.228;2023-10-31T02:34:41;95751.78;;;15.53;100.00
75815;BME280;70031;45.570;14.228;2023-10-31T02:36:42;95762.75;;;15.57;100.00
75815;BME280;70031;45.570;14.228;2023-10-31T02:38:42;95763.28;;;15.62;100.00
75815;BME280;70031;45.570;14.228;2023-10-31T02:40:42;95767.63;;;15.51;100.00
75815;BME280;70031;45.570;14.228;2023-10-31T02:42:42;95765.91;;;15.46;100.00
75815;BME280;70031;45.570;14.228;2023-10-31T02:44:43;95771.53;;;15.54;100.00
75815;BME280;70031;45.570;14.228;2023-10-31T02:46:43;95762.25;;;15.67;100.00
75815;BME280;70031;45.570;14.228;2023-10-31T02:48:43;95750.03;;;15.73;100.00
75815;BME280;70031;45.570;14.228;2023-10-31T02:50:43;95749.94;;;15.85;100.00
75815;BME280;70031;45.570;14.228;2023-10-31T02:52:45;95736.56;;;15.92;100.00
75815;BME280;70031;45.570;14.228;2023-10-31T02:54:45;95730.78;;;15.94;100.00
75815;BME280;70031;45.570;14.228;2023-10-31T02:56:45;95732.72;;;15.93;100.00
75815;BME280;70031;45.570;14.228;2023-10-31T02:58:46;95727.03;;;15.98;100.00
75815;BME280;70031;45.570;14.228;2023-10-31T03:00:46;95732.00;;;15.96;100.00
75815;BME280;70031;45.570;14.228;2023-10-31T03:02:46;95733.59;;;15.97;100.00
75815;BME280;70031;45.570;14.228;2023-10-31T03:04:46;95737.53;;;16.00;100.00
75815;BME280;70031;45.570;14.228;2023-10-31T03:06:47;95736.03;;;15.87;100.00
75815;BME280;70031;45.570;14.228;2023-10-31T03:08:47;95741.56;;;15.90;100.00
75815;BME280;70031;45.570;14.228;2023-10-31T03:10:48;95739.53;;;16.03;100.00
75815;BME280;70031;45.570;14.228;2023-10-31T03:12:49;95743.66;;;15.97;100.00
75815;BME280;70031;45.570;14.228;2023-10-31T03:14:50;95744.72;;;15.92;100.00
75815;BME280;70031;45.570;14.228;2023-10-31T03:16:50;95741.03;;;16.32;100.00
75815;BME280;70031;45.570;14.228;2023-10-31T03:18:50;95737.25;;;16.37;100.00
75815;BME280;70031;45.570;14.228;2023-10-31T03:20:50;95742.69;;;16.37;100.00
75815;BME280;70031;45.570;14.228;2023-10-31T03:22:51;95740.06;;;16.40;100.00
75815;BME280;70031;45.570;14.228;2023-10-31T03:24:51;95736.22;;;16.41;100.00
75815;BME280;70031;45.570;14.228;2023-10-31T03:26:51;95734.91;;;16.35;100.00
75815;BME280;70031;45.570;14.228;2023-10-31T03:28:52;95731.13;;;16.40;100.00
75815;BME280;70031;45.570;14.228;2023-10-31T03:30:57;95734.53;;;16.37;100.00
75815;BME280;70031;45.570;14.228;2023-10-31T03:32:57;95732.78;;;16.28;100.00
75815;BME280;70031;45.570;14.228;2023-10-31T03:34:57;95722.41;;;16.31;100.00
75815;BME280;70031;45.570;14.228;2023-10-31T03:36:57;95726.69;;;16.16;100.00
75815;BME280;70031;45.570;14.228;2023-10-31T03:38:57;95725.28;;;16.22;100.00
75815;BME280;70031;45.570;14.228;2023-10-31T03:40:58;95719.59;;;16.27;100.00
75815;BME280;70031;45.570;14.228;2023-10-31T03:42:58;95720.91;;;16.33;100.00
75815;BME280;70031;45.570;14.228;2023-10-31T03:44:58;95718.34;;;16.40;100.00
75815;BME280;70031;45.570;14.228;2023-10-31T03:47:16;95720.09;;;16.33;100.00
75815;BME280;70031;45.570;14.228;2023-10-31T03:49:17;95720.84;;;16.14;100.00
75815;BME280;70031;45.570;14.228;2023-10-31T03:51:17;95719.88;;;16.06;100.00
75815;BME280;70031;45.570;14.228;2023-10-31T03:53:17;95720.00;;;16.13;100.00
75815;BME280;70031;45.570;14.228;2023-10-31T03:55:17;95725.19;;;16.18;100.00
75815;BME280;70031;45.570;14.228;2023-10-31T03:57:17;95708.03;;;15.98;100.00
75815;BME280;70031;45.570;14.228;2023-10-31T03:59:18;95696.47;;;16.33;100.00
75815;BME280;70031;45.570;14.228;2023-10-31T04:01:18;95691.31;;;15.96;100.00
75815;BME280;70031;45.570;14.228;2023-10-31T04:03:18;95693.22;;;16.12;100.00
75815;BME280;70031;45.570;14.228;2023-10-31T04:05:18;95690.81;;;16.07;100.00
75815;BME280;70031;45.570;14.228;2023-10-31T04:07:18;95683.25;;;16.16;100.00
75815;BME280;70031;45.570;14.228;2023-10-31T04:09:19;95679.59;;;16.08;100.00
75815;BME280;70031;45.570;14.228;2023-10-31T04:11:19;95679.22;;;16.25;100.00
75815;BME280;70031;45.570;14.228;2023-10-31T04:13:19;95673.91;;;15.97;100.00
75815;BME280;70031;45.570;14.228;2023-10-31T04:15:19;95672.22;;;16.24;100.00
75815;BME280;70031;45.570;14.228;2023-10-31T04:17:19;95666.44;;;16.26;100.00
75815;BME280;70031;45.570;14.228;2023-10-31T04:19:20;95688.53;;;15.93;100.00
75815;BME280;70031;45.570;14.228;2023-10-31T04:21:20;95689.91;;;15.87;100.00
75815;BME280;70031;45.570;14.228;2023-10-31T04:23:20;95685.09;;;16.12;100.00
75815;BME280;70031;45.570;14.228;2023-10-31T04:25:21;95683.44;;;16.07;100.00
75815;BME280;70031;45.570;14.228;2023-10-31T04:27:21;95678.44;;;16.25;100.00
75815;BME280;70031;45.570;14.228;2023-10-31T04:29:21;95679.34;;;15.97;100.00
75815;BME280;70031;45.570;14.228;2023-10-31T04:31:21;95687.38;;;15.78;100.00
75815;BME280;70031;45.570;14.228;2023-10-31T04:33:22;95674.34;;;15.99;100.00
75815;BME280;70031;45.570;14.228;2023-10-31T04:35:22;95660.16;;;16.06;100.00
75815;BME280;70031;45.570;14.228;2023-10-31T04:37:22;95655.16;;;16.24;100.00
75815;BME280;70031;45.570;14.228;2023-10-31T04:39:22;95651.84;;;16.15;100.00
75815;BME280;70031;45.570;14.228;2023-10-31T04:41:22;95645.34;;;16.19;100.00
75815;BME280;70031;45.570;14.228;2023-10-31T04:43:23;95648.84;;;16.04;100.00
75815;BME280;70031;45.570;14.228;2023-10-31T04:45:23;95645.47;;;15.91;100.00
75815;BME280;70031;45.570;14.228;2023-10-31T04:47:23;95639.22;;;16.22;100.00
75815;BME280;70031;45.570;14.228;2023-10-31T04:49:23;95631.69;;;16.16;100.00
75815;BME280;70031;45.570;14.228;2023-10-31T04:51:23;95646.91;;;16.05;100.00
75815;BME280;70031;45.570;14.228;2023-10-31T04:53:24;95639.09;;;16.35;100.00
75815;BME280;70031;45.570;14.228;2023-10-31T04:55:24;95638.75;;;16.20;100.00
75815;BME280;70031;45.570;14.228;2023-10-31T04:57:24;95632.50;;;16.00;100.00
75815;BME280;70031;45.570;14.228;2023-10-31T04:59:24;95626.53;;;15.95;100.00
75815;BME280;70031;45.570;14.228;2023-10-31T05:01:25;95629.00;;;15.84;100.00
75815;BME280;70031;45.570;14.228;2023-10-31T05:03:25;95620.06;;;15.99;100.00
75815;BME280;70031;45.570;14.228;2023-10-31T05:05:26;95622.63;;;15.92;100.00
75815;BME280;70031;45.570;14.228;2023-10-31T05:07:26;95628.03;;;15.92;100.00
75815;BME280;70031;45.570;14.228;2023-10-31T05:09:26;95611.41;;;15.78;100.00
75815;BME280;70031;45.570;14.228;2023-10-31T05:11:26;95604.16;;;15.66;100.00
75815;BME280;70031;45.570;14.228;2023-10-31T05:13:27;95586.50;;;15.72;100.00
75815;BME280;70031;45.570;14.228;2023-10-31T05:15:27;95564.78;;;15.57;100.00
75815;BME280;70031;45.570;14.228;2023-10-31T05:17:27;95550.63;;;15.63;100.00
75815;BME280;70031;45.570;14.228;2023-10-31T05:19:27;95532.16;;;15.69;100.00
75815;BME280;70031;45.570;14.228;2023-10-31T05:21:27;95512.56;;;15.60;100.00
75815;BME280;70031;45.570;14.228;2023-10-31T05:23:28;95507.94;;;15.44;100.00
75815;BME280;70031;45.570;14.228;2023-10-31T05:25:28;95507.94;;;15.29;100.00
75815;BME280;70031;45.570;14.228;2023-10-31T05:27:28;95528.06;;;15.43;100.00
75815;BME280;70031;45.570;14.228;2023-10-31T05:29:29;95536.19;;;15.75;100.00
75815;BME280;70031;45.570;14.228;2023-10-31T05:31:30;95532.13;;;15.85;100.00
75815;BME280;70031;45.570;14.228;2023-10-31T05:33:30;95529.41;;;15.85;100.00
75815;BME280;70031;45.570;14.228;2023-10-31T05:35:30;95534.50;;;15.86;100.00
75815;BME280;70031;45.570;14.228;2023-10-31T05:37:30;95533.00;;;15.89;100.00
75815;BME280;70031;45.570;14.228;2023-10-31T05:39:30;95533.34;;;15.87;100.00
75815;BME280;70031;45.570;14.228;2023-10-31T05:41:34;95537.38;;;15.93;100.00
75815;BME280;70031;45.570;14.228;2023-10-31T05:43:34;95539.56;;;15.72;100.00
75815;BME280;70031;45.570;14.228;2023-10-31T05:45:35;95531.44;;;15.72;100.00
75815;BME280;70031;45.570;14.228;2023-10-31T05:47:35;95534.78;;;15.50;100.00
75815;BME280;70031;45.570;14.228;2023-10-31T05:49:35;95531.78;;;15.39;100.00
75815;BME280;70031;45.570;14.228;2023-10-31T05:51:35;95526.84;;;15.41;100.00
75815;BME280;70031;45.570;14.228;2023-10-31T05:53:35;95523.75;;;15.42;100.00
75815;BME280;70031;45.570;14.228;2023-10-31T05:55:38;95525.09;;;15.33;100.00
75815;BME280;70031;45.570;14.228;2023-10-31T05:57:38;95521.66;;;15.52;100.00
75815;BME280;70031;45.570;14.228;2023-10-31T05:59:39;95535.47;;;15.46;100.00
75815;BME280;70031;45.570;14.228;2023-10-31T06:01:39;95535.50;;;15.31;100.00
75815;BME280;70031;45.570;14.228;2023-10-31T06:03:42;95554.53;;;15.03;100.00
75815;BME280;70031;45.570;14.228;2023-10-31T06:05:46;95573.88;;;14.89;100.00
75815;BME280;70031;45.570;14.228;2023-10-31T06:07:46;95575.31;;;14.99;100.00
75815;BME280;70031;45.570;14.228;2023-10-31T06:09:46;95580.63;;;14.95;100.00
75815;BME280;70031;45.570;14.228;2023-10-31T06:11:46;95585.25;;;14.95;100.00
75815;BME280;70031;45.570;14.228;2023-10-31T06:13:47;95578.53;;;14.88;100.00
75815;BME280;70031;45.570;14.228;2023-10-31T06:15:48;95567.06;;;14.79;100.00
75815;BME280;70031;45.570;14.228;2023-10-31T06:17:48;95568.75;;;14.84;100.00
75815;BME280;70031;45.570;14.228;2023-10-31T06:19:48;95545.69;;;14.90;100.00
75815;BME280;70031;45.570;14.228;2023-10-31T06:21:48;95540.91;;;14.99;100.00
75815;BME280;70031;45.570;14.228;2023-10-31T06:23:49;95533.94;;;14.70;100.00
75815;BME280;70031;45.570;14.228;2023-10-31T06:25:49;95536.47;;;14.79;100.00
75815;BME280;70031;45.570;14.228;2023-10-31T06:27:49;95527.88;;;14.61;100.00
75815;BME280;70031;45.570;14.228;2023-10-31T06:29:49;95525.28;;;14.65;100.00
75815;BME280;70031;45.570;14.228;2023-10-31T06:31:50;95534.63;;;14.67;100.00
75815;BME280;70031;45.570;14.228;2023-10-31T06:33:50;95531.63;;;14.56;100.00
75815;BME280;70031;45.570;14.228;2023-10-31T06:35:50;95534.44;;;14.60;100.00
75815;BME280;70031;45.570;14.228;2023-10-31T06:37:52;95547.47;;;14.70;100.00
75815;BME280;70031;45.570;14.228;2023-10-31T06:39:52;95549.00;;;14.55;100.00
75815;BME280;70031;45.570;14.228;2023-10-31T06:41:56;95544.28;;;14.52;100.00
75815;BME280;70031;45.570;14.228;2023-10-31T06:43:56;95531.09;;;14.51;100.00
75815;BME280;70031;45.570;14.228;2023-10-31T06:45:59;95515.63;;;14.51;100.00
75815;BME280;70031;45.570;14.228;2023-10-31T06:48:00;95520.59;;;14.49;100.00
75815;BME280;70031;45.570;14.228;2023-10-31T06:50:00;95511.69;;;14.49;100.00
75815;BME280;70031;45.570;14.228;2023-10-31T06:52:01;95510.88;;;14.76;100.00
75815;BME280;70031;45.570;14.228;2023-10-31T06:54:01;95532.53;;;14.76;100.00
75815;BME280;70031;45.570;14.228;2023-10-31T06:56:01;95555.59;;;14.70;100.00
75815;BME280;70031;45.570;14.228;2023-10-31T06:58:01;95602.53;;;14.74;100.00
75815;BME280;70031;45.570;14.228;2023-10-31T07:00:03;95681.50;;;14.64;100.00
75815;BME280;70031;45.570;14.228;2023-10-31T07:02:03;95654.28;;;13.96;100.00
75815;BME280;70031;45.570;14.228;2023-10-31T07:04:03;95653.34;;;13.43;100.00
75815;BME280;70031;45.570;14.228;2023-10-31T07:06:04;95622.84;;;13.09;100.00
75815;BME280;70031;45.570;14.228;2023-10-31T07:08:04;95613.88;;;12.84;100.00
75815;BME280;70031;45.570;14.228;2023-10-31T07:10:05;95620.53;;;12.66;100.00
75815;BME280;70031;45.570;14.228;2023-10-31T07:12:05;95632.59;;;12.69;100.00
75815;BME280;70031;45.570;14.228;2023-10-31T07:14:06;95662.69;;;12.58;100.00
75815;BME280;70031;45.570;14.228;2023-10-31T07:16:06;95693.84;;;12.47;100.00
75815;BME280;70031;45.570;14.228;2023-10-31T07:18:07;95709.59;;;12.45;100.00
75815;BME280;70031;45.570;14.228;2023-10-31T07:20:10;95683.16;;;12.59;100.00
75815;BME280;70031;45.570;14.228;2023-10-31T07:22:10;95688.13;;;12.49;100.00
75815;BME280;70031;45.570;14.228;2023-10-31T07:24:10;95708.34;;;12.43;100.00
75815;BME280;70031;45.570;14.228;2023-10-31T07:26:11;95705.81;;;12.37;100.00
75815;BME280;70031;45.570;14.228;2023-10-31T07:28:11;95702.47;;;12.41;100.00
75815;BME280;70031;45.570;14.228;2023-10-31T07:30:11;95712.47;;;12.40;100.00
75815;BME280;70031;45.570;14.228;2023-10-31T07:32:11;95720.31;;;12.33;100.00
75815;BME280;70031;45.570;14.228;2023-10-31T07:34:12;95707.28;;;12.35;100.00
75815;BME280;70031;45.570;14.228;2023-10-31T07:36:13;95701.09;;;12.34;100.00
75815;BME280;70031;45.570;14.228;2023-10-31T07:38:13;95689.50;;;12.34;100.00
75815;BME280;70031;45.570;14.228;2023-10-31T07:40:15;95684.13;;;12.55;100.00
75815;BME280;70031;45.570;14.228;2023-10-31T07:42:15;95688.25;;;12.73;100.00
75815;BME280;70031;45.570;14.228;2023-10-31T07:44:15;95691.09;;;12.56;100.00
75815;BME280;70031;45.570;14.228;2023-10-31T07:46:16;95702.72;;;12.48;100.00
75815;BME280;70031;45.570;14.228;2023-10-31T07:48:16;95693.56;;;12.40;100.00
75815;BME280;70031;45.570;14.228;2023-10-31T07:50:16;95686.47;;;12.35;100.00
75815;BME280;70031;45.570;14.228;2023-10-31T07:52:16;95714.38;;;12.40;100.00
75815;BME280;70031;45.570;14.228;2023-10-31T07:54:16;95722.41;;;12.48;100.00
75815;BME280;70031;45.570;14.228;2023-10-31T07:56:17;95734.47;;;12.51;100.00
75815;BME280;70031;45.570;14.228;2023-10-31T07:58:18;95736.06;;;12.52;100.00
75815;BME280;70031;45.570;14.228;2023-10-31T08:00:19;95756.25;;;12.46;100.00
75815;BME280;70031;45.570;14.228;2023-10-31T08:02:19;95769.44;;;12.38;100.00
75815;BME280;70031;45.570;14.228;2023-10-31T08:04:19;95772.59;;;12.41;100.00
75815;BME280;70031;45.570;14.228;2023-10-31T08:06:19;95782.47;;;12.36;100.00
75815;BME280;70031;45.570;14.228;2023-10-31T08:08:19;95805.81;;;12.32;100.00
75815;BME280;70031;45.570;14.228;2023-10-31T08:10:20;95808.84;;;12.31;100.00
75815;BME280;70031;45.570;14.228;2023-10-31T08:12:20;95819.16;;;12.29;100.00
75815;BME280;70031;45.570;14.228;2023-10-31T08:14:20;95811.38;;;12.36;100.00
75815;BME280;70031;45.570;14.228;2023-10-31T08:16:22;95806.06;;;12.48;100.00
75815;BME280;70031;45.570;14.228;2023-10-31T08:18:23;95802.44;;;12.44;100.00
75815;BME280;70031;45.570;14.228;2023-10-31T08:20:24;95781.78;;;12.48;100.00
75815;BME280;70031;45.570;14.228;2023-10-31T08:22:24;95813.41;;;12.39;100.00
75815;BME280;70031;45.570;14.228;2023-10-31T08:24:24;95803.91;;;12.42;100.00
75815;BME280;70031;45.570;14.228;2023-10-31T08:26:24;95823.91;;;12.32;100.00
75815;BME280;70031;45.570;14.228;2023-10-31T08:28:25;95822.19;;;12.27;100.00
75815;BME280;70031;45.570;14.228;2023-10-31T08:30:25;95804.41;;;12.35;100.00
75815;BME280;70031;45.570;14.228;2023-10-31T08:32:25;95803.22;;;12.45;100.00
75815;BME280;70031;45.570;14.228;2023-10-31T08:34:25;95799.03;;;12.56;100.00
75815;BME280;70031;45.570;14.228;2023-10-31T08:36:26;95782.81;;;12.35;100.00
75815;BME280;70031;45.570;14.228;2023-10-31T08:38:29;95786.66;;;12.25;100.00
75815;BME280;70031;45.570;14.228;2023-10-31T08:40:29;95798.75;;;12.19;100.00
75815;BME280;70031;45.570;14.228;2023-10-31T08:42:29;95806.47;;;12.29;100.00
75815;BME280;70031;45.570;14.228;2023-10-31T08:44:29;95810.63;;;12.27;100.00
75815;BME280;70031;45.570;14.228;2023-10-31T08:46:29;95782.88;;;12.18;100.00
75815;BME280;70031;45.570;14.228;2023-10-31T08:48:30;95764.81;;;12.18;100.00
75815;BME280;70031;45.570;14.228;2023-10-31T08:50:30;95753.53;;;12.16;100.00
75815;BME280;70031;45.570;14.228;2023-10-31T08:52:30;95756.78;;;12.30;100.00
75815;BME280;70031;45.570;14.228;2023-10-31T08:54:30;95751.72;;;12.29;100.00
75815;BME280;70031;45.570;14.228;2023-10-31T08:56:31;95763.81;;;12.23;100.00
75815;BME280;70031;45.570;14.228;2023-10-31T08:58:31;95773.19;;;12.25;100.00
75815;BME280;70031;45.570;14.228;2023-10-31T09:00:31;95783.88;;;12.43;100.00
75815;BME280;70031;45.570;14.228;2023-10-31T09:02:31;95769.19;;;12.61;100.00
75815;BME280;70031;45.570;14.228;2023-10-31T09:04:31;95778.13;;;12.53;100.00
75815;BME280;70031;45.570;14.228;2023-10-31T09:06:32;95807.13;;;12.56;100.00
75815;BME280;70031;45.570;14.228;2023-10-31T09:08:32;95803.31;;;12.57;100.00
75815;BME280;70031;45.570;14.228;2023-10-31T09:10:35;95774.81;;;12.47;100.00
75815;BME280;70031;45.570;14.228;2023-10-31T09:12:37;95766.53;;;12.52;100.00
75815;BME280;70031;45.570;14.228;2023-10-31T09:14:38;95753.50;;;12.54;100.00
75815;BME280;70031;45.570;14.228;2023-10-31T09:16:38;95764.47;;;12.49;100.00
75815;BME280;70031;45.570;14.228;2023-10-31T09:18:38;95766.25;;;12.45;100.00
75815;BME280;70031;45.570;14.228;2023-10-31T09:20:39;95733.41;;;12.43;100.00
75815;BME280;70031;45.570;14.228;2023-10-31T09:22:39;95750.50;;;12.47;100.00
75815;BME280;70031;45.570;14.228;2023-10-31T09:24:39;95776.38;;;12.48;100.00
75815;BME280;70031;45.570;14.228;2023-10-31T09:26:43;95769.28;;;12.44;100.00
75815;BME280;70031;45.570;14.228;2023-10-31T09:28:43;95769.13;;;12.40;100.00
75815;BME280;70031;45.570;14.228;2023-10-31T09:30:49;95784.53;;;12.40;100.00
75815;BME280;70031;45.570;14.228;2023-10-31T09:32:50;95791.00;;;12.47;100.00
75815;BME280;70031;45.570;14.228;2023-10-31T09:34:51;95782.38;;;12.54;100.00
75815;BME280;70031;45.570;14.228;2023-10-31T09:36:51;95797.91;;;12.57;100.00
75815;BME280;70031;45.570;14.228;2023-10-31T09:38:51;95802.81;;;12.63;100.00
75815;BME280;70031;45.570;14.228;2023-10-31T09:40:52;95801.38;;;12.66;100.00
75815;BME280;70031;45.570;14.228;2023-10-31T09:42:52;95787.72;;;12.92;100.00
75815;BME280;70031;45.570;14.228;2023-10-31T09:44:52;95774.50;;;12.99;100.00
75815;BME280;70031;45.570;14.228;2023-10-31T09:46:52;95773.94;;;12.85;100.00
75815;BME280;70031;45.570;14.228;2023-10-31T09:48:53;95773.28;;;12.88;100.00
75815;BME280;70031;45.570;14.228;2023-10-31T09:50:53;95791.09;;;13.10;100.00
75815;BME280;70031;45.570;14.228;2023-10-31T09:52:53;95795.31;;;13.19;100.00
75815;BME280;70031;45.570;14.228;2023-10-31T09:54:55;95794.84;;;13.17;100.00
75815;BME280;70031;45.570;14.228;2023-10-31T09:56:56;95800.94;;;13.06;100.00
75815;BME280;70031;45.570;14.228;2023-10-31T09:58:56;95791.22;;;13.13;100.00
75815;BME280;70031;45.570;14.228;2023-10-31T10:00:58;95805.09;;;13.03;100.00
75815;BME280;70031;45.570;14.228;2023-10-31T10:02:59;95826.44;;;12.96;100.00
75815;BME280;70031;45.570;14.228;2023-10-31T10:04:59;95827.63;;;13.07;100.00
75815;BME280;70031;45.570;14.228;2023-10-31T10:07:00;95837.97;;;13.35;100.00
75815;BME280;70031;45.570;14.228;2023-10-31T10:09:01;95829.47;;;13.24;100.00
75815;BME280;70031;45.570;14.228;2023-10-31T10:11:06;95827.94;;;13.35;100.00
75815;BME280;70031;45.570;14.228;2023-10-31T10:13:06;95824.53;;;13.26;100.00
75815;BME280;70031;45.570;14.228;2023-10-31T10:15:08;95828.19;;;13.21;100.00
75815;BME280;70031;45.570;14.228;2023-10-31T10:17:23;95811.66;;;13.23;100.00
75815;BME280;70031;45.570;14.228;2023-10-31T10:19:24;95825.69;;;13.16;100.00
75815;BME280;70031;45.570;14.228;2023-10-31T10:21:25;95824.22;;;13.19;100.00